Time;durP1;ratioP1;P1;durP2;ratioP2;P2;SDS_P1;SDS_P2;PMS_P1;PMS_P2;Temp;Humidity;BMP_temperature;BMP_pressure;BME280_temperature;BME280_humidity;BME280_pressure;Samples;Min_cycle;Max_cycle;Signal;HPM_P1;HPM_P2
2022/04/16 00:01:37;;;;;;;17.13;16.43;;;11.80;38.30;;;;;;5032225;28;20419;-82
2022/04/16 00:04:03;;;;;;;16.80;16.20;;;11.70;37.90;;;;;;5048676;28;20422;-82
2022/04/16 00:06:29;;;;;;;16.63;16.03;;;11.70;38.10;;;;;;5031810;28;20412;-81
2022/04/16 00:08:54;;;;;;;16.23;15.67;;;11.70;37.80;;;;;;5048999;28;20180;-81
2022/04/16 00:11:20;;;;;;;16.30;15.70;;;11.70;38.00;;;;;;5048785;28;20247;-81
2022/04/16 00:13:52;;;;;;;16.90;16.30;;;11.60;38.00;;;;;;5048521;28;20187;-81
2022/04/16 00:16:17;;;;;;;16.83;16.23;;;11.70;38.10;;;;;;5048265;28;20668;-82
2022/04/16 00:18:44;;;;;;;16.30;15.70;;;11.60;38.00;;;;;;5048407;28;20443;-81
2022/04/16 00:21:12;;;;;;;16.23;15.63;;;11.60;37.90;;;;;;5048077;28;20539;-81
2022/04/16 00:23:39;;;;;;;15.90;15.30;;;11.40;38.10;;;;;;5048124;28;20415;-81
2022/04/16 00:26:05;;;;;;;16.30;15.70;;;11.40;38.20;;;;;;5048055;28;20534;-81
2022/04/16 00:28:31;;;;;;;15.87;15.30;;;11.40;39.20;;;;;;5048126;28;20408;-81
2022/04/16 00:30:56;;;;;;;16.23;15.63;;;11.40;38.70;;;;;;5048350;28;20173;-82
2022/04/16 00:33:25;;;;;;;16.50;15.90;;;11.30;38.70;;;;;;5048074;28;20223;-82
2022/04/16 00:35:51;;;;;;;16.40;15.77;;;11.40;38.90;;;;;;5048002;28;20614;-82
2022/04/16 00:38:17;;;;;;;16.40;15.80;;;11.40;38.60;;;;;;5047970;28;20549;-82
2022/04/16 00:40:43;;;;;;;16.10;15.60;;;11.30;38.70;;;;;;5047338;28;20420;-82
2022/04/16 00:43:19;;;;;;;16.90;16.30;;;11.20;38.40;;;;;;5047567;28;20419;-82
2022/04/16 00:45:45;;;;;;;16.20;15.60;;;11.30;38.90;;;;;;5048221;28;20183;-81
2022/04/16 00:48:14;;;;;;;17.00;16.17;;;11.30;39.20;;;;;;5047873;28;20970;-82
2022/04/16 00:50:40;;;;;;;15.40;14.90;;;11.20;38.70;;;;;;5047445;28;20447;-82
2022/04/16 00:53:06;;;;;;;15.70;15.10;;;11.20;39.00;;;;;;5047522;28;20809;-82
2022/04/16 00:55:36;;;;;;;16.77;16.10;;;11.20;38.80;;;;;;5047018;28;20478;-81
2022/04/16 00:58:02;;;;;;;16.80;16.10;;;11.10;38.90;;;;;;5031994;28;20493;-81
2022/04/16 01:00:28;;;;;;;16.43;15.83;;;11.10;39.00;;;;;;5047800;28;20926;-81
2022/04/16 01:02:56;;;;;;;16.57;15.87;;;11.10;39.10;;;;;;5032254;28;20180;-80
2022/04/16 01:05:21;;;;;;;16.43;15.83;;;11.20;38.80;;;;;;5047253;28;20609;-81
2022/04/16 01:07:53;;;;;;;17.60;16.90;;;11.20;38.50;;;;;;5047360;28;20462;-81
2022/04/16 01:10:20;;;;;;;16.57;15.97;;;11.10;39.30;;;;;;5047113;28;20184;-81
2022/04/16 01:12:45;;;;;;;17.03;16.37;;;11.10;39.00;;;;;;5047438;28;20427;-82
2022/04/16 01:15:11;;;;;;;17.30;16.63;;;11.10;39.40;;;;;;5046504;28;20420;-81
2022/04/16 01:17:37;;;;;;;17.27;16.47;;;11.10;38.80;;;;;;5047024;28;20172;-81
2022/04/16 01:20:03;;;;;;;16.60;16.00;;;11.10;39.40;;;;;;5047074;28;20560;-82
2022/04/16 01:22:29;;;;;;;16.93;16.33;;;11.00;38.80;;;;;;5047448;28;20416;-81
2022/04/16 01:24:55;;;;;;;17.50;16.80;;;11.10;38.60;;;;;;5047396;28;20443;-82
2022/04/16 01:27:21;;;;;;;16.80;16.20;;;11.00;38.70;;;;;;5047127;28;20427;-81
2022/04/16 01:29:48;;;;;;;16.77;16.13;;;11.10;38.90;;;;;;5046625;28;20652;-81
2022/04/16 01:32:13;;;;;;;17.17;16.57;;;11.00;38.70;;;;;;5046690;28;20415;-81
2022/04/16 01:34:40;;;;;;;17.37;16.63;;;11.00;38.80;;;;;;5046400;28;20497;-81
2022/04/16 01:37:06;;;;;;;17.27;16.47;;;10.80;39.00;;;;;;5046482;28;20626;-81
2022/04/16 01:39:32;;;;;;;16.60;15.90;;;10.90;40.30;;;;;;5046764;28;20427;-81
2022/04/16 01:41:58;;;;;;;16.80;16.20;;;10.80;39.20;;;;;;5046656;28;20415;-81
2022/04/16 01:44:25;;;;;;;17.70;17.10;;;10.80;40.00;;;;;;5047100;28;20824;-81
2022/04/16 01:46:51;;;;;;;16.40;15.80;;;10.80;39.40;;;;;;5047632;28;20911;-81
2022/04/16 01:49:17;;;;;;;17.13;16.53;;;10.80;39.70;;;;;;5046782;28;20507;-79
2022/04/16 01:51:43;;;;;;;17.10;16.40;;;10.80;39.80;;;;;;5031175;28;20206;-80
2022/04/16 01:54:09;;;;;;;16.60;16.00;;;10.90;39.80;;;;;;5045639;28;20510;-80
2022/04/16 01:56:34;;;;;;;16.63;16.03;;;10.80;39.90;;;;;;5046227;28;20738;-80
2022/04/16 01:59:01;;;;;;;17.17;16.50;;;10.80;39.60;;;;;;5046320;28;20581;-82
2022/04/16 02:01:26;;;;;;;16.93;16.30;;;10.70;39.90;;;;;;5045574;28;20176;-83
2022/04/16 02:03:52;;;;;;;17.17;16.47;;;10.70;40.20;;;;;;5046241;28;20470;-77
2022/04/16 02:06:17;;;;;;;17.57;16.87;;;10.70;40.10;;;;;;5045184;28;20194;-83
2022/04/16 02:08:43;;;;;;;17.87;17.17;;;10.80;40.50;;;;;;5044511;28;20517;-83
2022/04/16 02:11:09;;;;;;;16.90;16.30;;;10.80;41.20;;;;;;5046190;28;20176;-83
2022/04/16 02:13:35;;;;;;;18.20;17.40;;;10.80;40.70;;;;;;5045705;28;20420;-83
2022/04/16 02:16:01;;;;;;;17.50;16.90;;;10.80;40.50;;;;;;5046066;28;20203;-83
2022/04/16 02:18:27;;;;;;;17.40;16.70;;;10.70;40.50;;;;;;5045941;28;20415;-83
2022/04/16 02:20:53;;;;;;;18.50;17.70;;;10.70;40.50;;;;;;5045492;28;20169;-83
2022/04/16 02:23:19;;;;;;;17.60;16.90;;;10.50;40.20;;;;;;5045384;28;20403;-81
2022/04/16 02:25:44;;;;;;;18.63;17.90;;;10.60;41.10;;;;;;5045446;28;20176;-83
2022/04/16 02:28:10;;;;;;;17.67;16.97;;;10.60;41.10;;;;;;5045804;28;20182;-82
2022/04/16 02:30:37;;;;;;;17.80;17.13;;;10.40;40.60;;;;;;5045417;28;20181;-82
2022/04/16 02:33:04;;;;;;;17.17;16.57;;;10.30;41.80;;;;;;5045800;28;20959;-82
2022/04/16 02:35:30;;;;;;;17.33;16.73;;;10.30;41.70;;;;;;5045302;28;20455;-83
2022/04/16 02:37:56;;;;;;;19.17;18.13;;;10.30;41.90;;;;;;5045996;28;20442;-83
2022/04/16 02:40:21;;;;;;;18.43;17.73;;;10.20;42.50;;;;;;5045385;28;20173;-81
2022/04/16 02:42:47;;;;;;;19.03;18.13;;;10.20;42.30;;;;;;5045351;28;20412;-81
2022/04/16 02:47:59;;;;;;;18.10;17.40;;;10.20;41.80;;;;;;5029193;28;20591;-82
2022/04/16 02:50:27;;;;;;;18.40;17.70;;;10.20;42.70;;;;;;5044544;28;20519;-82
2022/04/16 02:52:55;;;;;;;19.13;18.43;;;10.20;41.80;;;;;;5045239;28;20420;-83
2022/04/16 02:55:22;;;;;;;17.50;16.87;;;10.20;42.00;;;;;;5045520;28;20457;-83
2022/04/16 02:57:49;;;;;;;17.97;17.17;;;10.20;41.80;;;;;;5045040;28;20502;-83
2022/04/16 03:00:15;;;;;;;17.67;16.97;;;10.20;41.80;;;;;;5044722;28;20416;-83
2022/04/16 03:02:41;;;;;;;17.83;17.13;;;10.10;42.00;;;;;;5045434;28;20411;-83
2022/04/16 03:05:08;;;;;;;17.50;16.90;;;10.10;43.00;;;;;;5048753;28;20468;-82
2022/04/16 03:07:35;;;;;;;18.70;18.00;;;10.10;42.90;;;;;;5049114;28;20827;-83
2022/04/16 03:10:02;;;;;;;18.93;18.23;;;10.10;43.10;;;;;;5049084;28;20507;-83
2022/04/16 03:12:28;;;;;;;18.40;17.70;;;10.10;42.90;;;;;;5049067;28;20412;-82
2022/04/16 03:17:38;;;;;;;18.93;18.13;;;10.10;42.50;;;;;;5034087;28;20407;-83
2022/04/16 03:20:06;;;;;;;19.23;18.43;;;10.00;42.20;;;;;;5049327;28;20419;-84
2022/04/16 03:22:37;;;;;;;19.30;18.50;;;9.80;44.20;;;;;;5049887;28;20177;-83
2022/04/16 03:25:09;;;;;;;19.30;18.57;;;9.80;44.20;;;;;;5049692;28;20407;-83
2022/04/16 03:27:36;;;;;;;19.13;18.40;;;9.80;44.30;;;;;;5049576;28;20404;-83
2022/04/16 03:30:03;;;;;;;18.00;17.40;;;9.80;44.90;;;;;;5049392;28;20414;-83
2022/04/16 03:32:30;;;;;;;19.30;18.50;;;9.80;44.40;;;;;;5049604;28;20794;-83
2022/04/16 03:34:56;;;;;;;19.50;18.70;;;9.80;44.00;;;;;;5049697;28;20458;-83
2022/04/16 03:37:24;;;;;;;17.90;17.20;;;9.70;44.60;;;;;;5049932;28;20463;-83
2022/04/16 03:39:51;;;;;;;17.73;17.10;;;9.70;45.50;;;;;;5034742;28;20420;-84
2022/04/16 03:42:18;;;;;;;19.40;18.60;;;9.70;44.60;;;;;;5049608;28;20807;-83
2022/04/16 03:44:44;;;;;;;19.40;18.50;;;9.80;45.10;;;;;;5049521;28;20412;-84
2022/04/16 03:47:10;;;;;;;18.33;17.60;;;9.90;45.20;;;;;;5049234;28;20930;-84
2022/04/16 03:49:37;;;;;;;17.40;16.70;;;9.80;44.60;;;;;;5049752;28;20485;-83
2022/04/16 03:52:03;;;;;;;19.00;18.13;;;9.80;44.50;;;;;;5049511;28;20427;-82
2022/04/16 04:00:03;;;;;;;21.10;20.30;;;9.80;44.40;;;;;;5034734;28;20485;-84
2022/04/16 04:02:29;;;;;;;19.40;18.60;;;9.80;45.50;;;;;;5049630;28;20423;-82
2022/04/16 04:04:56;;;;;;;20.00;19.10;;;9.70;45.10;;;;;;5049889;28;20424;-83
2022/04/16 04:07:22;;;;;;;19.03;18.33;;;9.70;45.00;;;;;;5050297;28;20427;-83
2022/04/16 04:09:47;;;;;;;18.67;17.87;;;9.70;45.00;;;;;;5050247;28;20770;-83
2022/04/16 04:12:14;;;;;;;20.07;19.13;;;9.80;46.00;;;;;;5050831;28;20641;-83
2022/04/16 04:14:42;;;;;;;18.90;18.10;;;9.70;45.70;;;;;;5050273;28;20191;-83
2022/04/16 04:17:08;;;;;;;19.97;19.17;;;9.70;45.80;;;;;;5050360;28;20506;-84
2022/04/16 04:19:35;;;;;;;20.67;19.80;;;9.80;45.30;;;;;;5051959;28;20415;-86
2022/04/16 04:22:04;;;;;;;20.87;20.00;;;9.80;45.20;;;;;;5053054;28;20421;-85
2022/04/16 04:24:31;;;;;;;19.70;18.90;;;9.70;45.50;;;;;;5052378;28;20502;-84
2022/04/16 04:27:00;;;;;;;21.00;20.20;;;9.70;45.10;;;;;;5052377;28;20464;-82
2022/04/16 04:29:27;;;;;;;18.97;18.17;;;9.60;44.90;;;;;;5049981;28;20826;-81
2022/04/16 04:31:53;;;;;;;20.27;19.47;;;9.60;45.30;;;;;;5052736;28;20426;-82
2022/04/16 04:34:19;;;;;;;19.43;18.63;;;9.60;45.60;;;;;;5053645;28;20813;-83
2022/04/16 04:36:45;;;;;;;20.40;19.60;;;9.50;46.10;;;;;;5052344;28;20454;-84
2022/04/16 04:39:12;;;;;;;19.57;18.77;;;9.50;46.60;;;;;;5052509;28;20180;-81
2022/04/16 04:41:38;;;;;;;19.87;19.07;;;9.50;46.20;;;;;;5052745;28;20429;-81
2022/04/16 04:44:04;;;;;;;20.40;19.30;;;9.60;46.50;;;;;;5052391;28;20505;-81
2022/04/16 04:46:30;;;;;;;20.37;19.47;;;9.50;46.40;;;;;;5052660;28;20469;-81
2022/04/16 04:48:56;;;;;;;20.40;19.50;;;9.60;46.40;;;;;;5049882;28;20855;-82
2022/04/16 04:51:22;;;;;;;20.60;19.80;;;9.50;46.00;;;;;;5050465;28;20190;-81
2022/04/16 04:53:48;;;;;;;19.90;19.10;;;9.50;46.20;;;;;;5051752;28;20418;-82
2022/04/16 04:56:13;;;;;;;21.13;20.03;;;9.60;46.30;;;;;;5051908;28;20247;-81
2022/04/16 04:58:39;;;;;;;20.90;20.00;;;9.60;46.00;;;;;;5052251;28;20183;-81
2022/04/16 05:01:05;;;;;;;21.83;20.90;;;9.60;46.80;;;;;;5051206;28;20508;-84
2022/04/16 05:03:30;;;;;;;20.90;20.10;;;9.50;46.00;;;;;;5049986;28;20231;-83
2022/04/16 05:05:56;;;;;;;20.00;19.20;;;9.60;45.60;;;;;;5050227;28;20179;-83
2022/04/16 05:08:22;;;;;;;21.23;20.30;;;9.50;45.50;;;;;;5050132;28;20186;-83
2022/04/16 05:10:47;;;;;;;20.33;19.53;;;9.50;46.40;;;;;;5049795;28;20194;-83
2022/04/16 05:13:13;;;;;;;19.70;18.90;;;9.40;46.00;;;;;;5049893;28;20191;-83
2022/04/16 05:15:39;;;;;;;20.07;19.27;;;9.40;46.10;;;;;;5049956;28;20206;-82
2022/04/16 05:18:04;;;;;;;20.17;19.37;;;9.50;46.20;;;;;;5049799;28;20659;-82
2022/04/16 05:20:30;;;;;;;21.03;20.13;;;9.50;45.90;;;;;;5046050;28;20234;-83
2022/04/16 05:22:56;;;;;;;20.73;19.83;;;9.40;46.10;;;;;;5029973;28;20644;-83
2022/04/16 05:25:21;;;;;;;21.77;20.77;;;9.50;46.70;;;;;;5046040;28;20184;-83
2022/04/16 05:27:47;;;;;;;20.80;20.00;;;9.70;46.00;;;;;;5029922;28;20600;-83
2022/04/16 05:30:13;;;;;;;20.03;19.23;;;9.70;45.70;;;;;;5046162;28;20668;-83
2022/04/16 05:32:42;;;;;;;20.43;19.40;;;9.70;46.90;;;;;;5049267;28;20176;-83
2022/04/16 05:35:09;;;;;;;19.83;19.10;;;9.60;46.10;;;;;;5049130;28;20435;-84
2022/04/16 05:37:38;;;;;;;20.30;19.40;;;9.50;46.50;;;;;;5047898;28;20467;-82
2022/04/16 05:40:05;;;;;;;21.40;20.50;;;9.60;46.50;;;;;;5051145;28;20505;-79
2022/04/16 05:42:31;;;;;;;20.00;19.20;;;9.60;47.10;;;;;;5050914;28;20414;-79
2022/04/16 05:45:03;;;;;;;20.87;19.97;;;9.70;46.30;;;;;;5050734;28;20413;-80
2022/04/16 05:47:28;;;;;;;22.17;21.27;;;9.80;46.10;;;;;;5050696;28;20184;-78
2022/04/16 05:49:54;;;;;;;20.97;20.03;;;9.80;46.50;;;;;;5050030;28;20430;-79
2022/04/16 05:52:22;;;;;;;21.73;20.83;;;9.80;45.90;;;;;;5050238;28;20179;-80
2022/04/16 05:54:48;;;;;;;21.80;20.70;;;9.80;45.60;;;;;;5049934;28;20429;-79
2022/04/16 05:57:14;;;;;;;21.07;20.17;;;10.00;44.70;;;;;;5049643;28;21016;-79
2022/04/16 05:59:40;;;;;;;20.30;19.50;;;9.80;45.40;;;;;;5050381;28;20410;-79
2022/04/16 06:02:06;;;;;;;21.33;20.33;;;10.00;44.50;;;;;;5050198;28;20425;-81
2022/04/16 06:04:32;;;;;;;20.87;20.00;;;10.00;44.20;;;;;;5045123;28;20251;-79
2022/04/16 06:06:58;;;;;;;21.93;21.03;;;10.00;44.20;;;;;;5050787;28;20422;-79
2022/04/16 06:09:24;;;;;;;22.00;21.10;;;9.90;45.20;;;;;;5049324;28;20864;-79
2022/04/16 06:11:51;;;;;;;21.00;20.10;;;10.00;44.80;;;;;;5050877;28;20234;-81
2022/04/16 06:14:17;;;;;;;20.90;20.00;;;9.90;45.40;;;;;;5050742;28;20287;-81
2022/04/16 06:16:43;;;;;;;20.93;20.10;;;10.00;44.40;;;;;;5050099;28;20542;-81
2022/04/16 06:19:08;;;;;;;21.93;21.03;;;10.20;43.20;;;;;;5049999;28;20175;-82
2022/04/16 06:21:34;;;;;;;21.60;20.70;;;10.20;44.00;;;;;;5050134;28;20183;-82
2022/04/16 06:24:00;;;;;;;22.13;21.17;;;10.10;43.40;;;;;;5049019;28;20261;-81
2022/04/16 06:26:26;;;;;;;21.27;20.37;;;10.10;44.10;;;;;;5050608;28;20180;-82
2022/04/16 06:28:52;;;;;;;21.80;20.90;;;10.00;44.60;;;;;;5050661;28;20429;-80
2022/04/16 06:31:18;;;;;;;20.93;20.03;;;10.30;43.20;;;;;;5050779;28;20195;-80
2022/04/16 06:33:45;;;;;;;20.57;19.70;;;10.20;43.90;;;;;;5050648;28;20426;-80
2022/04/16 06:36:11;;;;;;;21.87;20.77;;;10.20;44.20;;;;;;5049939;28;20199;-81
2022/04/16 06:38:38;;;;;;;21.33;20.40;;;10.20;44.50;;;;;;5050999;28;20414;-81
2022/04/16 06:41:03;;;;;;;21.27;20.27;;;10.10;44.40;;;;;;5053308;28;20172;-80
2022/04/16 06:43:29;;;;;;;21.33;20.43;;;10.10;43.80;;;;;;5053379;28;20398;-79
2022/04/16 06:45:55;;;;;;;24.00;22.83;;;10.00;44.10;;;;;;5053782;28;20538;-79
2022/04/16 06:48:20;;;;;;;22.70;21.50;;;10.00;43.80;;;;;;5054253;28;20180;-79
2022/04/16 06:50:46;;;;;;;21.30;20.40;;;10.10;43.40;;;;;;5052859;28;20187;-79
2022/04/16 06:53:12;;;;;;;20.83;19.83;;;10.20;44.30;;;;;;5055092;28;20200;-78
2022/04/16 06:55:37;;;;;;;21.40;20.50;;;10.10;43.70;;;;;;5053690;28;20261;-78
2022/04/16 06:58:03;;;;;;;22.43;21.40;;;10.20;43.40;;;;;;5054004;28;20176;-79
2022/04/16 07:00:30;;;;;;;20.60;19.70;;;10.20;43.80;;;;;;5054873;28;20251;-79
2022/04/16 07:02:56;;;;;;;21.47;20.57;;;10.10;43.90;;;;;;5053261;28;20180;-79
2022/04/16 07:05:21;;;;;;;21.40;20.50;;;10.10;43.30;;;;;;5063195;28;20901;-79
2022/04/16 07:07:47;;;;;;;21.60;20.60;;;10.10;43.30;;;;;;5051701;28;20176;-80
2022/04/16 07:10:13;;;;;;;21.17;20.27;;;10.10;43.80;;;;;;5051712;28;20200;-80
2022/04/16 07:12:39;;;;;;;21.90;21.00;;;10.10;43.90;;;;;;5051752;28;20172;-79
2022/04/16 07:15:05;;;;;;;22.97;21.67;;;10.20;43.40;;;;;;5052036;28;20200;-79
2022/04/16 07:17:31;;;;;;;22.43;21.43;;;10.30;43.30;;;;;;5053898;28;20461;-80
2022/04/16 07:19:57;;;;;;;23.17;21.90;;;10.30;43.70;;;;;;5053426;28;20410;-80
2022/04/16 07:22:22;;;;;;;22.47;21.47;;;10.20;43.60;;;;;;5053618;28;20187;-78
2022/04/16 07:24:49;;;;;;;23.00;21.77;;;10.10;44.00;;;;;;5053147;28;20168;-77
2022/04/16 07:27:15;;;;;;;23.47;22.27;;;10.20;45.00;;;;;;5053050;28;20187;-77
2022/04/16 07:29:41;;;;;;;24.50;23.30;;;10.20;44.30;;;;;;5053567;28;20487;-78
2022/04/16 07:32:07;;;;;;;22.00;21.07;;;10.30;44.80;;;;;;5053521;28;20431;-80
2022/04/16 07:34:32;;;;;;;23.87;22.77;;;10.30;44.20;;;;;;5052850;28;20176;-81
2022/04/16 07:36:58;;;;;;;22.53;21.33;;;10.30;44.30;;;;;;5053561;28;20830;-78
2022/04/16 07:39:24;;;;;;;22.43;21.30;;;10.40;44.40;;;;;;5053216;28;20195;-78
2022/04/16 07:41:51;;;;;;;23.30;22.00;;;10.40;43.70;;;;;;5053196;28;20258;-79
2022/04/16 07:44:17;;;;;;;23.07;21.67;;;10.30;44.30;;;;;;5052279;28;20183;-79
2022/04/16 07:46:46;;;;;;;21.50;20.50;;;10.30;43.70;;;;;;5051713;28;20624;-79
2022/04/16 07:49:11;;;;;;;21.07;20.07;;;10.40;44.20;;;;;;5052225;28;20423;-79
2022/04/16 07:51:37;;;;;;;21.93;20.93;;;10.40;43.90;;;;;;5052205;28;20839;-79
2022/04/16 07:54:03;;;;;;;23.23;21.93;;;10.50;44.20;;;;;;5053401;28;20176;-78
2022/04/16 07:56:28;;;;;;;21.50;20.53;;;10.60;43.80;;;;;;5052574;28;20337;-79
2022/04/16 07:58:55;;;;;;;22.00;20.70;;;10.60;44.00;;;;;;5053313;28;20198;-79
2022/04/16 08:01:21;;;;;;;22.80;21.63;;;10.70;43.30;;;;;;5052422;28;20172;-79
2022/04/16 08:03:46;;;;;;;23.07;21.87;;;10.80;43.60;;;;;;5054383;28;20910;-81
2022/04/16 08:06:12;;;;;;;22.40;21.30;;;10.70;43.30;;;;;;5052625;28;20418;-80
2022/04/16 08:08:39;;;;;;;21.60;20.60;;;10.70;44.10;;;;;;5051784;28;20180;-79
2022/04/16 08:11:04;;;;;;;23.47;22.17;;;10.80;44.00;;;;;;5051134;28;20172;-80
2022/04/16 08:13:30;;;;;;;22.33;21.23;;;10.80;44.40;;;;;;5051628;28;20417;-80
2022/04/16 08:15:56;;;;;;;24.37;23.00;;;10.80;43.50;;;;;;5051488;28;20457;-82
2022/04/16 08:18:22;;;;;;;22.63;21.47;;;10.80;43.60;;;;;;5052281;28;20263;-81
2022/04/16 08:20:47;;;;;;;23.20;21.97;;;11.00;44.50;;;;;;5053533;28;20207;-81
2022/04/16 08:23:14;;;;;;;22.67;21.67;;;11.00;43.40;;;;;;5053574;28;20214;-81
2022/04/16 08:28:07;;;;;;;22.67;21.67;;;11.10;43.00;;;;;;5053908;28;20919;-81
2022/04/16 08:30:32;;;;;;;22.70;21.60;;;11.20;42.70;;;;;;5050811;28;20858;-82
2022/04/16 08:32:59;;;;;;;25.87;24.43;;;11.10;42.60;;;;;;5050390;28;20497;-82
2022/04/16 08:35:25;;;;;;;23.07;21.70;;;11.20;42.70;;;;;;5050743;28;20180;-81
2022/04/16 08:37:51;;;;;;;21.87;20.87;;;11.30;42.40;;;;;;5050741;28;20899;-81
2022/04/16 08:40:19;;;;;;;22.30;21.10;;;11.40;41.60;;;;;;5050542;28;20788;-79
2022/04/16 08:42:48;;;;;;;21.73;20.63;;;11.30;42.70;;;;;;5050611;28;20418;-81
2022/04/16 08:45:15;;;;;;;23.47;22.33;;;11.30;42.80;;;;;;5050477;28;20437;-80
2022/04/16 08:47:41;;;;;;;22.73;21.60;;;11.40;43.30;;;;;;5050589;28;20502;-81
2022/04/16 08:50:09;;;;;;;23.13;22.00;;;11.40;42.80;;;;;;5051816;28;20685;-81
2022/04/16 08:52:37;;;;;;;22.83;21.63;;;11.40;42.70;;;;;;5052379;28;20422;-81
2022/04/16 08:55:05;;;;;;;20.83;19.93;;;11.50;42.50;;;;;;5051989;28;20930;-82
2022/04/16 08:57:31;;;;;;;23.23;22.13;;;11.50;40.80;;;;;;5049977;28;20484;-80
2022/04/16 08:59:57;;;;;;;22.07;20.97;;;11.60;42.00;;;;;;5050276;28;20421;-81
2022/04/16 09:02:27;;;;;;;22.70;21.60;;;11.70;41.00;;;;;;5049714;28;20175;-81
2022/04/16 09:05:02;;;;;;;22.07;20.97;;;11.80;40.80;;;;;;5050030;28;20846;-79
2022/04/16 09:07:28;;;;;;;23.13;22.03;;;11.90;40.30;;;;;;5050419;28;20914;-79
2022/04/16 09:09:53;;;;;;;23.43;22.07;;;11.80;40.80;;;;;;5050381;28;20758;-79
2022/04/16 09:12:20;;;;;;;23.00;21.80;;;11.80;40.40;;;;;;5051785;28;20191;-79
2022/04/16 09:14:48;;;;;;;22.97;21.57;;;11.80;42.00;;;;;;5049990;28;20270;-79
2022/04/16 09:17:19;;;;;;;23.03;21.80;;;11.70;42.00;;;;;;5052762;28;20572;-79
2022/04/16 09:19:56;;;;;;;22.63;21.50;;;11.70;42.70;;;;;;5051304;28;20413;-77
2022/04/16 09:22:35;;;;;;;24.63;23.20;;;11.70;42.00;;;;;;5051451;28;20418;-81
2022/04/16 09:25:04;;;;;;;23.10;21.90;;;11.70;42.60;;;;;;5051354;28;20419;-80
2022/04/16 09:27:46;;;;;;;26.30;24.43;;;11.60;42.60;;;;;;5051187;28;20418;-78
2022/04/16 09:30:21;;;;;;;26.40;24.70;;;11.70;47.10;;;;;;5051221;28;20975;-80
2022/04/16 09:32:49;;;;;;;25.20;23.63;;;11.70;41.80;;;;;;5051299;28;20501;-80
2022/04/16 09:35:32;;;;;;;30.33;27.73;;;11.70;43.00;;;;;;5050252;28;20414;-80
2022/04/16 09:38:00;;;;;;;23.40;22.20;;;11.70;43.10;;;;;;5051201;28;20450;-79
2022/04/16 09:40:30;;;;;;;25.33;23.93;;;11.70;42.20;;;;;;5050490;28;20411;-77
2022/04/16 09:42:59;;;;;;;23.97;22.80;;;11.80;42.00;;;;;;5050613;28;20456;-79
2022/04/16 09:45:26;;;;;;;25.23;23.93;;;11.80;41.70;;;;;;5052101;28;20399;-80
2022/04/16 09:47:54;;;;;;;25.23;23.83;;;11.80;43.20;;;;;;5051631;28;20493;-80
2022/04/16 09:50:27;;;;;;;26.77;25.27;;;11.70;41.40;;;;;;5051398;28;20414;-80
2022/04/16 09:52:58;;;;;;;25.23;23.73;;;11.40;41.60;;;;;;5037849;28;20455;-79
2022/04/16 09:55:25;;;;;;;24.10;22.63;;;11.30;43.10;;;;;;5053660;28;20792;-79
2022/04/16 09:58:04;;;;;;;23.90;22.60;;;11.50;43.30;;;;;;5070492;28;20429;-79
2022/04/16 10:00:33;;;;;;;24.63;23.17;;;11.50;43.00;;;;;;5061072;28;20418;-80
2022/04/16 10:02:59;;;;;;;23.70;22.50;;;11.40;42.00;;;;;;5047442;28;20426;-80
2022/04/16 10:05:25;;;;;;;23.67;22.57;;;11.40;42.50;;;;;;5046958;28;20415;-79
2022/04/16 10:07:55;;;;;;;23.03;21.83;;;11.40;42.00;;;;;;5047987;28;20422;-79
2022/04/16 10:10:31;;;;;;;22.53;21.33;;;11.50;41.00;;;;;;5045777;28;20415;-80
2022/04/16 10:13:10;;;;;;;22.00;20.90;;;11.60;41.10;;;;;;5036026;28;20452;-80
2022/04/16 10:15:55;;;;;;;22.77;21.70;;;11.60;39.00;;;;;;5053044;28;20422;-80
2022/04/16 10:18:21;;;;;;;21.53;20.53;;;11.60;40.20;;;;;;5052592;28;20433;-79
2022/04/16 10:20:53;;;;;;;22.50;21.50;;;11.70;38.80;;;;;;5052660;28;20423;-79
2022/04/16 10:23:30;;;;;;;22.57;21.43;;;11.80;38.10;;;;;;5052731;28;20425;-79
2022/04/16 10:26:16;;;;;;;22.40;21.20;;;11.80;38.20;;;;;;5052747;28;20453;-79
2022/04/16 10:28:55;;;;;;;24.77;23.20;;;11.90;39.70;;;;;;5052807;28;20548;-81
2022/04/16 10:31:25;;;;;;;23.73;22.40;;;11.90;38.20;;;;;;5052500;28;20433;-78
2022/04/16 10:34:01;;;;;;;24.50;23.10;;;12.00;38.20;;;;;;5052214;28;20914;-79
2022/04/16 10:36:32;;;;;;;24.87;23.10;;;12.00;37.90;;;;;;5069525;28;20465;-80
2022/04/16 10:38:59;;;;;;;23.17;21.80;;;12.00;37.90;;;;;;5052687;28;20429;-79
2022/04/16 10:41:26;;;;;;;23.17;22.07;;;12.20;38.00;;;;;;5052243;28;20422;-78
2022/04/16 10:43:53;;;;;;;23.33;22.07;;;12.30;37.10;;;;;;5052552;28;20433;-78
2022/04/16 10:46:19;;;;;;;23.97;22.33;;;12.40;36.90;;;;;;5052437;28;20846;-78
2022/04/16 10:48:45;;;;;;;22.53;21.33;;;12.40;36.70;;;;;;5052386;28;20497;-80
2022/04/16 10:51:11;;;;;;;21.27;20.03;;;12.50;38.40;;;;;;5052186;28;20647;-79
2022/04/16 10:53:38;;;;;;;20.00;19.03;;;12.50;36.80;;;;;;5052281;28;20271;-79
2022/04/16 10:56:12;;;;;;;22.60;21.30;;;12.50;34.60;;;;;;5051913;28;20208;-81
2022/04/16 10:58:42;;;;;;;21.63;20.33;;;12.60;34.90;;;;;;5052320;28;20415;-80
2022/04/16 11:01:13;;;;;;;21.83;20.73;;;12.60;33.80;;;;;;5052511;28;20538;-79
2022/04/16 11:03:47;;;;;;;20.47;19.40;;;12.40;34.50;;;;;;5052242;28;20834;-81
2022/04/16 11:06:15;;;;;;;21.90;20.67;;;12.60;36.50;;;;;;5051868;28;20455;-79
2022/04/16 11:08:41;;;;;;;22.53;21.23;;;12.70;33.90;;;;;;5051705;28;20422;-80
2022/04/16 11:11:11;;;;;;;21.00;19.90;;;12.80;35.90;;;;;;5051757;28;20472;-80
2022/04/16 11:13:38;;;;;;;23.83;22.63;;;12.80;34.30;;;;;;5051570;28;21112;-80
2022/04/16 11:16:06;;;;;;;22.30;21.37;;;12.80;34.00;;;;;;5051095;28;20450;-80
2022/04/16 11:18:43;;;;;;;21.33;20.23;;;12.90;31.50;;;;;;5051526;28;20415;-80
2022/04/16 11:24:21;;;;;;;19.70;18.70;;;12.80;32.10;;;;;;4985711;22;20985;-82
2022/04/16 11:35:01;;;;;;;20.80;19.80;;;12.80;30.30;;;;;;4974024;28;20421;-83
2022/04/16 11:37:26;;;;;;;20.10;19.00;;;12.70;31.40;;;;;;4972721;28;20457;-83
2022/04/16 11:40:05;;;;;;;21.47;20.33;;;12.70;31.60;;;;;;4972665;28;20233;-82
2022/04/16 11:42:31;;;;;;;19.63;18.73;;;12.80;30.50;;;;;;4972390;28;20221;-84
2022/04/16 11:44:57;;;;;;;20.80;19.60;;;12.80;31.40;;;;;;4972508;28;20844;-81
2022/04/16 11:47:27;;;;;;;20.80;19.80;;;12.80;30.40;;;;;;4972174;28;20922;-82
2022/04/16 11:50:05;;;;;;;21.00;20.00;;;12.80;30.20;;;;;;4972208;28;20426;-82
2022/04/16 11:52:32;;;;;;;20.40;19.60;;;12.90;31.70;;;;;;4972201;28;20417;-82
2022/04/16 11:55:06;;;;;;;19.60;18.70;;;12.90;29.60;;;;;;4971903;28;20427;-82
2022/04/16 11:57:33;;;;;;;20.50;19.50;;;13.00;30.50;;;;;;4972058;28;20465;-82
2022/04/16 12:00:04;;;;;;;20.93;19.97;;;13.30;30.10;;;;;;4972052;28;20411;-83
2022/04/16 12:02:32;;;;;;;21.60;20.50;;;13.20;28.90;;;;;;4969387;28;20463;-82
2022/04/16 12:05:18;;;;;;;21.23;20.23;;;13.10;29.10;;;;;;4968927;28;20485;-82
2022/04/16 12:07:47;;;;;;;21.37;20.37;;;13.00;28.60;;;;;;4969207;28;20838;-82
2022/04/16 12:10:14;;;;;;;20.53;19.43;;;13.10;29.10;;;;;;4968609;28;20437;-83
2022/04/16 12:12:53;;;;;;;20.77;19.77;;;13.10;28.60;;;;;;4973636;28;20473;-82
2022/04/16 12:15:23;;;;;;;21.17;20.13;;;13.10;29.40;;;;;;4954351;29;20450;-82
2022/04/16 12:17:50;;;;;;;19.30;18.40;;;13.20;28.30;;;;;;4980998;28;20961;-82
2022/04/16 12:20:16;;;;;;;20.00;19.00;;;13.20;27.30;;;;;;4992402;28;20440;-81
2022/04/16 12:29:29;;;;;;;19.60;18.70;;;13.40;27.40;;;;;;5022876;22;20883;-80
2022/04/16 12:32:01;;;;;;;20.20;19.20;;;13.70;31.90;;;;;;5011695;28;20479;-81
2022/04/16 12:34:27;;;;;;;19.30;18.43;;;13.70;27.00;;;;;;5013369;28;20416;-79
2022/04/16 12:37:10;;;;;;;20.40;19.47;;;13.70;26.30;;;;;;5012398;28;20465;-80
2022/04/16 12:39:36;;;;;;;20.47;19.47;;;13.60;25.70;;;;;;5013723;28;20413;-79
2022/04/16 12:42:06;;;;;;;19.77;18.90;;;13.50;25.60;;;;;;5005044;28;20415;-80
2022/04/16 12:44:32;;;;;;;20.20;19.20;;;13.50;26.60;;;;;;5001464;28;20526;-80
2022/04/16 12:46:58;;;;;;;22.40;21.27;;;13.50;27.30;;;;;;4998933;28;20504;-78
2022/04/16 12:49:23;;;;;;;19.70;18.70;;;13.50;26.30;;;;;;4991585;28;20186;-78
2022/04/16 12:51:50;;;;;;;20.80;19.73;;;13.40;27.00;;;;;;4991189;28;20280;-80
2022/04/16 12:54:16;;;;;;;19.33;18.40;;;13.40;27.20;;;;;;4991525;28;20225;-81
2022/04/16 12:56:47;;;;;;;19.50;18.50;;;13.50;25.60;;;;;;4992110;28;20833;-82
2022/04/16 12:59:13;;;;;;;20.73;19.80;;;13.60;26.10;;;;;;4992000;28;20416;-79
2022/04/16 13:01:39;;;;;;;18.70;17.80;;;13.60;25.60;;;;;;4992499;28;20464;-81